Time;durP1;ratioP1;P1;durP2;ratioP2;P2;SDS_P1;SDS_P2;PMS_P1;PMS_P2;Temp;Humidity;BMP_temperature;BMP_pressure;BME280_temperature;BME280_humidity;BME280_pressure;Samples;Min_cycle;Max_cycle;Signal;HPM_P1;HPM_P2
2022/06/04 02:34:56;;;;;;;6.03;2.17;;;11.30;99.90;;;;;;6234723;22;20024;-91
2022/06/04 02:37:56;;;;;;;6.78;2.30;;;11.40;99.90;;;;;;6322958;22;20024;-91
2022/06/04 03:06:31;;;;;;;5.05;2.22;;;11.50;99.90;;;;;;6242549;22;20463;-90
2022/06/04 03:08:57;;;;;;;5.07;2.20;;;11.50;99.90;;;;;;6215948;23;20055;-91
2022/06/04 03:11:23;;;;;;;4.90;1.88;;;11.50;99.90;;;;;;6215867;23;20016;-91
2022/06/04 03:14:41;;;;;;;4.82;2.30;;;11.60;99.90;;;;;;6215745;23;20047;-92
2022/06/04 03:17:11;;;;;;;4.57;1.75;;;11.50;99.90;;;;;;6222398;22;20019;-91
2022/06/04 03:19:42;;;;;;;4.68;1.98;;;11.50;99.90;;;;;;6216231;23;20314;-90
2022/06/04 03:22:17;;;;;;;4.25;1.90;;;11.50;99.90;;;;;;6217536;23;20020;-91
2022/06/04 03:24:43;;;;;;;5.82;1.95;;;11.50;99.90;;;;;;6215628;23;20459;-91
2022/06/04 03:27:22;;;;;;;;;;;;;;;;;;;;;
2022/06/04 03:29:50;;;;;;;3.63;1.48;;;11.50;99.90;;;;;;6241461;23;20042;-91
2022/06/04 03:32:52;;;;;;;4.53;1.53;;;11.50;99.90;;;;;;6215445;23;20453;-92
2022/06/04 03:35:19;;;;;;;4.30;1.58;;;11.50;99.90;;;;;;6235064;23;20020;-91
2022/06/04 03:37:44;;;;;;;3.38;1.35;;;11.40;99.90;;;;;;6215768;23;20020;-92
2022/06/04 03:40:11;;;;;;;3.53;1.57;;;11.40;99.90;;;;;;6215590;23;20030;-93
2022/06/04 03:42:43;;;;;;;;;;;11.40;99.90;;;;;;6216264;23;20024;-92
2022/06/04 04:18:16;;;;;;;4.45;1.88;;;11.30;99.90;;;;;;6241533;22;20032;-92
2022/06/04 04:20:47;;;;;;;4.38;1.77;;;11.30;99.90;;;;;;6190709;22;20020;-91
2022/06/04 04:23:13;;;;;;;3.67;1.77;;;11.30;99.90;;;;;;6192877;22;20399;-92
2022/06/04 04:26:03;;;;;;;5.07;2.60;;;11.30;99.90;;;;;;6191489;23;20020;-91
2022/06/04 04:28:32;;;;;;;3.95;1.73;;;11.30;99.90;;;;;;6204369;23;20016;-91
2022/06/04 04:30:58;;;;;;;4.72;1.95;;;11.30;99.90;;;;;;6189869;23;20020;-91
2022/06/04 04:33:39;;;;;;;4.25;1.70;;;11.40;99.90;;;;;;6189716;23;20016;-90
2022/06/04 04:38:40;;;;;;;4.03;1.50;;;11.40;99.90;;;;;;6402675;22;20040;-90
2022/06/04 05:20:47;;;;;;;4.60;1.90;;;13.50;99.90;;;;;;6245466;22;20020;-89
2022/06/04 05:23:16;;;;;;;4.50;2.10;;;13.50;99.90;;;;;;6244144;22;20022;-94
2022/06/04 05:25:42;;;;;;;3.92;1.52;;;13.50;99.90;;;;;;6244436;22;20286;-93
2022/06/04 05:28:10;;;;;;;4.50;1.83;;;13.50;99.90;;;;;;6244028;22;20026;-92
2022/06/04 05:30:36;;;;;;;3.50;1.85;;;13.50;99.90;;;;;;6269379;22;20019;-90
2022/06/04 07:55:24;;;;;;;3.22;1.60;;;15.70;99.90;;;;;;6221678;22;20028;-85
2022/06/04 07:57:50;;;;;;;;;;;15.50;99.90;;;;;;6190551;23;20016;-87
2022/06/04 08:00:16;;;;;;;2.60;1.35;;;15.50;99.90;;;;;;6214757;23;20293;-86
2022/06/04 08:02:45;;;;;;;4.47;1.50;;;15.40;99.90;;;;;;6189429;23;20461;-88
2022/06/04 08:05:14;;;;;;;3.78;1.35;;;15.50;99.90;;;;;;6190192;23;20058;-86
2022/06/04 08:07:41;;;;;;;3.53;1.52;;;15.60;99.90;;;;;;6189723;22;20345;-85
2022/06/04 08:10:08;;;;;;;3.28;1.35;;;15.60;99.90;;;;;;6214208;23;20081;-84
2022/06/04 08:12:40;;;;;;;3.08;1.30;;;15.60;99.90;;;;;;6189094;23;20356;-86
2022/06/04 08:15:06;;;;;;;3.75;1.40;;;15.60;99.90;;;;;;6214281;23;20012;-89
2022/06/04 08:17:32;;;;;;;;;;;15.60;99.90;;;;;;6189566;23;20091;-85
2022/06/04 08:20:10;;;;;;;2.55;1.30;;;15.60;99.90;;;;;;6213309;23;19951;-91
2022/06/04 08:22:46;;;;;;;3.45;1.30;;;15.60;99.90;;;;;;6218249;23;20024;-86
2022/06/04 08:25:21;;;;;;;3.73;1.57;;;15.60;99.90;;;;;;6189997;23;20059;-87
2022/06/04 08:27:50;;;;;;;4.13;1.42;;;15.70;99.90;;;;;;6188519;23;20255;-86
2022/06/04 08:30:16;;;;;;;2.97;1.25;;;15.80;99.90;;;;;;6219208;22;20027;-87
2022/06/04 08:32:45;;;;;;;3.55;1.42;;;15.90;99.90;;;;;;6321345;22;20028;-86
2022/06/04 08:35:11;;;;;;;3.72;1.40;;;16.00;99.90;;;;;;6322718;22;20019;-86
2022/06/04 08:37:37;;;;;;;3.35;1.30;;;16.00;99.90;;;;;;6321486;22;20016;-88
2022/06/04 08:40:25;;;;;;;2.78;1.02;;;16.00;99.90;;;;;;6321556;22;20043;-89
2022/06/04 08:53:19;;;;;;;3.55;1.25;;;16.10;99.90;;;;;;6242306;22;20032;-89
2022/06/04 08:59:53;;;;;;;2.90;1.25;;;16.10;99.90;;;;;;6243549;22;20026;-90
2022/06/04 09:41:46;;;;;;;1.83;0.95;;;15.90;99.90;;;;;;6208425;22;20036;-90
2022/06/04 10:18:56;;;;;;;3.58;1.60;;;16.40;99.90;;;;;;6402159;22;20043;-88
2022/06/04 10:21:44;;;;;;;5.13;1.90;;;16.40;99.90;;;;;;6347361;22;20017;-88
2022/06/04 10:24:22;;;;;;;3.70;1.70;;;16.40;99.90;;;;;;6352525;22;20319;-88
2022/06/04 10:27:33;;;;;;;4.15;1.58;;;16.40;99.90;;;;;;6372265;22;20014;-87
2022/06/04 10:35:28;;;;;;;3.20;1.23;;;16.60;99.90;;;;;;6245390;22;20436;-87
2022/06/04 10:41:04;;;;;;;4.93;1.60;;;16.80;99.90;;;;;;6239288;22;20027;-89
2022/06/04 10:44:08;;;;;;;3.45;1.20;;;16.90;99.90;;;;;;6240248;23;20461;-87
2022/06/04 10:46:41;;;;;;;4.30;1.25;;;16.90;99.90;;;;;;6239844;23;20453;-87
2022/06/04 10:49:51;;;;;;;2.85;1.27;;;17.00;99.90;;;;;;6215016;22;20020;-87
2022/06/04 10:52:25;;;;;;;3.33;1.60;;;17.00;99.90;;;;;;6240012;23;20023;-87
2022/06/04 10:55:32;;;;;;;3.55;1.60;;;16.90;99.90;;;;;;6214454;23;20028;-86
2022/06/04 10:58:01;;;;;;;4.00;1.40;;;17.00;99.90;;;;;;6243547;23;20012;-88
2022/06/04 11:00:47;;;;;;;4.10;1.40;;;17.10;99.90;;;;;;6215712;23;20069;-88
2022/06/04 11:03:27;;;;;;;3.92;1.75;;;17.30;99.90;;;;;;6239585;23;20058;-87
2022/06/04 11:06:19;;;;;;;4.68;1.58;;;17.40;99.90;;;;;;6214773;23;20024;-87
2022/06/04 11:08:48;;;;;;;3.05;1.40;;;17.50;99.90;;;;;;6240271;22;20019;-87
2022/06/04 11:11:25;;;;;;;4.35;1.55;;;17.60;99.90;;;;;;6217057;23;20031;-86
2022/06/04 11:13:59;;;;;;;3.78;1.65;;;17.70;99.90;;;;;;6240030;23;20065;-87
2022/06/04 11:16:50;;;;;;;3.67;1.50;;;17.70;99.90;;;;;;6214696;22;20016;-89
2022/06/04 11:19:40;;;;;;;3.50;1.55;;;17.90;99.90;;;;;;6214655;23;20020;-88
2022/06/04 11:22:25;;;;;;;4.00;1.50;;;18.00;99.90;;;;;;6214790;22;20449;-89
2022/06/04 11:25:27;;;;;;;4.38;2.15;;;18.00;99.90;;;;;;6240064;23;20048;-88
2022/06/04 11:28:09;;;;;;;4.53;1.90;;;18.10;99.90;;;;;;6215444;22;20091;-88
2022/06/04 11:47:11;;;;;;;3.40;1.48;;;18.90;99.90;;;;;;6215630;22;20025;-89
2022/06/04 11:50:06;;;;;;;2.22;1.17;;;18.90;99.90;;;;;;6189235;23;20039;-87
2022/06/04 12:00:47;;;;;;;3.70;1.70;;;19.10;99.90;;;;;;6401488;22;20071;-88
2022/06/04 12:59:56;;;;;;;4.32;1.70;;;18.50;99.90;;;;;;6224272;22;20024;-89
2022/06/04 14:49:03;;;;;;;3.28;1.48;;;18.20;99.90;;;;;;6241373;22;20024;-90
2022/06/04 14:54:40;;;;;;;3.70;1.40;;;18.20;99.90;;;;;;6176170;22;1482162;-92
2022/06/04 16:17:13;;;;;;;6.85;1.95;;;16.70;99.90;;;;;;6257069;22;20022;-90
2022/06/04 16:20:22;;;;;;;5.47;1.92;;;16.60;99.90;;;;;;6347403;22;20031;-90
2022/06/04 16:23:36;;;;;;;4.82;2.45;;;16.50;99.90;;;;;;6324015;22;20023;-90
2022/06/04 16:26:31;;;;;;;4.18;1.55;;;16.40;99.90;;;;;;6346948;22;20061;-90
2022/06/04 16:28:59;;;;;;;4.28;1.67;;;16.40;99.90;;;;;;6346996;22;20765;-90
2022/06/04 16:31:34;;;;;;;4.55;1.75;;;16.40;99.90;;;;;;6321096;22;20024;-91
2022/06/04 16:34:09;;;;;;;3.38;1.60;;;16.40;99.90;;;;;;6321130;22;20051;-91
2022/06/04 16:36:51;;;;;;;3.95;1.85;;;16.30;99.90;;;;;;6347157;22;20012;-90
2022/06/04 16:39:23;;;;;;;3.72;1.80;;;16.30;99.90;;;;;;6320396;22;20056;-93
2022/06/04 16:42:16;;;;;;;7.13;2.00;;;16.30;99.90;;;;;;6321593;22;20024;-89
2022/06/04 16:44:48;;;;;;;4.95;2.00;;;16.30;99.90;;;;;;6321541;22;20020;-91
2022/06/04 16:47:21;;;;;;;3.78;1.52;;;16.20;99.90;;;;;;6321034;22;20390;-90
2022/06/04 16:49:55;;;;;;;4.35;1.95;;;16.20;99.90;;;;;;6347436;22;20028;-88
2022/06/04 16:52:30;;;;;;;5.13;1.98;;;16.10;99.90;;;;;;6320175;22;20056;-90
2022/06/04 18:37:32;;;;;;;4.35;2.08;;;14.80;99.90;;;;;;6257790;22;20024;-85
2022/06/04 18:39:58;;;;;;;3.83;2.03;;;14.80;99.90;;;;;;6345460;22;20024;-90
2022/06/04 18:56:09;;;;;;;5.10;1.92;;;14.50;99.90;;;;;;6348013;22;20084;-92
2022/06/04 18:58:36;;;;;;;10.73;3.15;;;14.50;99.90;;;;;;6321937;22;20437;-87
2022/06/04 19:01:03;;;;;;;3.17;1.75;;;14.40;99.90;;;;;;6347939;22;20483;-90
2022/06/04 19:03:36;;;;;;;5.43;1.90;;;14.40;99.90;;;;;;6323371;22;20020;-89
2022/06/04 19:06:01;;;;;;;4.82;1.88;;;14.30;99.90;;;;;;6322028;22;20032;-89
2022/06/04 19:08:28;;;;;;;5.05;2.30;;;14.30;99.90;;;;;;6325293;22;20016;-87
2022/06/04 19:13:45;;;;;;;4.47;2.15;;;14.10;99.90;;;;;;6347494;22;20069;-89
2022/06/04 19:16:17;;;;;;;5.88;2.13;;;14.10;99.90;;;;;;6347636;22;20077;-87
2022/06/04 19:18:47;;;;;;;5.60;2.25;;;14.10;99.90;;;;;;6347461;22;20024;-89
2022/06/04 19:26:44;;;;;;;5.43;2.38;;;13.90;99.90;;;;;;6347959;22;20061;-90
2022/06/04 19:29:12;;;;;;;4.28;2.05;;;13.90;99.90;;;;;;6348008;22;20115;-91
2022/06/04 19:31:38;;;;;;;4.80;2.10;;;13.80;99.90;;;;;;6321366;22;20441;-88
2022/06/04 19:34:05;;;;;;;3.45;1.85;;;13.70;99.90;;;;;;6321632;22;20023;-90
2022/06/04 19:36:31;;;;;;;4.28;2.08;;;13.70;99.90;;;;;;6321269;22;20016;-91
2022/06/04 19:39:23;;;;;;;5.07;2.13;;;13.70;99.90;;;;;;6346915;22;20028;-87
2022/06/04 19:41:50;;;;;;;4.43;2.33;;;13.70;99.90;;;;;;6324075;22;20012;-88
2022/06/04 19:44:20;;;;;;;6.88;2.22;;;13.70;99.90;;;;;;6326099;22;20020;-90
2022/06/04 19:46:50;;;;;;;6.70;2.42;;;13.70;99.90;;;;;;6322223;22;20013;-88
2022/06/04 19:49:17;;;;;;;6.25;2.75;;;13.70;99.90;;;;;;6321268;22;20027;-88
2022/06/04 19:51:43;;;;;;;4.35;2.05;;;13.60;99.90;;;;;;6321393;22;20073;-92
2022/06/04 19:56:55;;;;;;;4.63;2.30;;;13.60;99.90;;;;;;6348241;22;20258;-91
2022/06/04 19:59:22;;;;;;;4.55;2.10;;;13.50;99.90;;;;;;6322115;22;20016;-90
2022/06/04 20:01:47;;;;;;;4.80;2.40;;;13.50;99.90;;;;;;6347438;22;20051;-88
2022/06/04 20:04:13;;;;;;;3.43;1.90;;;13.40;99.90;;;;;;6347899;22;20012;-92
2022/06/04 20:06:39;;;;;;;4.65;2.05;;;13.40;99.90;;;;;;6241641;23;20012;-88
2022/06/04 20:09:08;;;;;;;4.70;1.95;;;13.30;99.90;;;;;;6241661;22;20077;-88
2022/06/04 20:11:33;;;;;;;4.37;2.13;;;13.30;99.90;;;;;;6345876;22;20023;-88
2022/06/04 20:13:59;;;;;;;4.10;2.03;;;13.20;99.90;;;;;;6321392;22;20247;-88
2022/06/04 20:16:44;;;;;;;4.97;2.15;;;13.20;99.90;;;;;;6321608;22;20021;-91
2022/06/04 20:19:10;;;;;;;5.97;2.45;;;13.10;99.90;;;;;;6320625;22;20027;-89
2022/06/04 20:21:36;;;;;;;4.47;2.28;;;13.10;99.90;;;;;;6321197;22;20017;-88
2022/06/04 20:24:02;;;;;;;4.97;2.70;;;13.00;99.90;;;;;;6320245;22;20020;-85
2022/06/04 20:26:30;;;;;;;7.32;2.47;;;13.00;99.90;;;;;;6320426;22;20024;-89
2022/06/04 20:28:56;;;;;;;6.22;2.50;;;12.90;99.90;;;;;;6242062;23;20095;-86
2022/06/04 20:31:21;;;;;;;5.15;2.65;;;12.90;99.90;;;;;;6349251;22;20016;-88
2022/06/04 20:33:47;;;;;;;5.00;2.35;;;12.80;99.90;;;;;;6323015;22;20030;-89
2022/06/04 20:36:15;;;;;;;4.40;2.33;;;12.80;99.90;;;;;;6349133;22;20012;-90
2022/06/04 20:39:18;;;;;;;5.68;2.35;;;12.70;99.90;;;;;;6323031;22;20020;-89
2022/06/04 21:45:43;;;;;;;6.70;2.95;;;11.90;99.90;;;;;;6249155;22;20024;-88
2022/06/04 22:05:03;;;;;;;6.45;3.08;;;11.80;99.90;;;;;;6226969;22;20024;-92
2022/06/04 22:28:15;;;;;;;4.35;2.15;;;11.70;99.90;;;;;;6409615;22;20024;-93
2022/06/04 22:52:47;;;;;;;4.80;2.40;;;11.50;99.90;;;;;;6233373;22;20110;-91
2022/06/04 22:55:13;;;;;;;4.20;2.70;;;11.50;99.90;;;;;;6343508;22;20011;-93
2022/06/04 22:58:08;;;;;;;8.13;3.03;;;11.50;99.90;;;;;;6343869;22;20017;-93
2022/06/04 23:30:21;;;;;;;6.57;3.33;;;11.50;99.90;;;;;;6235276;22;20449;-89
2022/06/04 23:32:47;;;;;;;6.10;3.27;;;11.40;99.90;;;;;;6347482;22;20028;-88
2022/06/04 23:35:13;;;;;;;5.17;2.50;;;11.40;99.90;;;;;;6347650;22;20016;-89
2022/06/04 23:37:38;;;;;;;5.87;3.03;;;11.30;99.90;;;;;;6348147;22;20054;-92
2022/06/04 23:40:07;;;;;;;5.90;2.57;;;11.30;99.90;;;;;;6347806;22;20016;-92
2022/06/04 23:42:43;;;;;;;5.43;2.63;;;11.20;99.90;;;;;;6363019;22;20364;-93
2022/06/04 23:45:46;;;;;;;5.73;2.80;;;11.20;99.90;;;;;;6350312;22;20018;-94
